sensor_id;sensor_type;location;lat;lon;timestamp;pressure;altitude;pressure_sealevel;temperature;humidity
70248;BME280;57641;51.416;5.506;2023-02-20T00:02:15;102732.41;;;10.16;63.04
70248;BME280;57641;51.416;5.506;2023-02-20T00:04:41;102730.78;;;10.13;62.94
70248;BME280;57641;51.416;5.506;2023-02-20T00:07:06;102729.34;;;10.35;62.23
70248;BME280;57641;51.416;5.506;2023-02-20T00:09:32;102726.16;;;10.30;61.99
70248;BME280;57641;51.416;5.506;2023-02-20T00:11:57;102728.94;;;10.41;62.52
70248;BME280;57641;51.416;5.506;2023-02-20T00:14:23;102748.75;;;10.37;62.21
70248;BME280;57641;51.416;5.506;2023-02-20T00:16:48;102748.56;;;10.40;61.46
70248;BME280;57641;51.416;5.506;2023-02-20T00:19:14;102729.78;;;10.41;62.38
70248;BME280;57641;51.416;5.506;2023-02-20T00:21:47;102729.88;;;10.40;61.47
70248;BME280;57641;51.416;5.506;2023-02-20T00:24:14;102727.00;;;10.43;62.04
70248;BME280;57641;51.416;5.506;2023-02-20T00:26:45;102724.84;;;10.48;61.16
70248;BME280;57641;51.416;5.506;2023-02-20T00:29:20;102727.00;;;10.43;61.53
70248;BME280;57641;51.416;5.506;2023-02-20T00:31:54;102719.31;;;10.38;61.80
70248;BME280;57641;51.416;5.506;2023-02-20T00:34:20;102719.34;;;10.51;61.62
70248;BME280;57641;51.416;5.506;2023-02-20T00:36:46;102717.06;;;10.32;61.68
70248;BME280;57641;51.416;5.506;2023-02-20T00:39:12;102704.09;;;10.40;61.13
70248;BME280;57641;51.416;5.506;2023-02-20T00:41:38;102709.75;;;10.36;61.15
70248;BME280;57641;51.416;5.506;2023-02-20T00:44:03;102702.69;;;10.35;62.13
70248;BME280;57641;51.416;5.506;2023-02-20T00:46:29;102701.22;;;10.31;62.17
70248;BME280;57641;51.416;5.506;2023-02-20T00:48:54;102691.16;;;10.22;61.93
70248;BME280;57641;51.416;5.506;2023-02-20T00:51:20;102687.75;;;10.32;62.49
70248;BME280;57641;51.416;5.506;2023-02-20T00:53:46;102685.41;;;10.28;61.87
70248;BME280;57641;51.416;5.506;2023-02-20T00:56:11;102680.69;;;10.31;61.36
70248;BME280;57641;51.416;5.506;2023-02-20T00:58:37;102674.22;;;10.23;62.13
70248;BME280;57641;51.416;5.506;2023-02-20T01:01:02;102670.91;;;10.19;62.04
70248;BME280;57641;51.416;5.506;2023-02-20T01:03:28;102660.63;;;10.13;62.19
70248;BME280;57641;51.416;5.506;2023-02-20T01:05:53;102655.88;;;10.18;62.58
70248;BME280;57641;51.416;5.506;2023-02-20T01:08:19;102650.22;;;10.23;62.27
70248;BME280;57641;51.416;5.506;2023-02-20T01:10:44;102646.06;;;10.19;62.78
70248;BME280;57641;51.416;5.506;2023-02-20T01:13:10;102650.31;;;10.21;62.17
70248;BME280;57641;51.416;5.506;2023-02-20T01:15:35;102647.56;;;10.23;61.72
70248;BME280;57641;51.416;5.506;2023-02-20T01:18:01;102643.72;;;10.27;62.52
70248;BME280;57641;51.416;5.506;2023-02-20T01:20:27;102647.75;;;10.32;62.30
70248;BME280;57641;51.416;5.506;2023-02-20T01:22:52;102648.28;;;10.37;62.32
70248;BME280;57641;51.416;5.506;2023-02-20T01:25:17;102660.22;;;10.44;62.22
70248;BME280;57641;51.416;5.506;2023-02-20T01:27:43;102660.34;;;10.43;61.90
70248;BME280;57641;51.416;5.506;2023-02-20T01:30:09;102662.91;;;10.44;61.63
70248;BME280;57641;51.416;5.506;2023-02-20T01:32:34;102668.66;;;10.51;61.67
70248;BME280;57641;51.416;5.506;2023-02-20T01:35:00;102668.66;;;10.51;61.75
70248;BME280;57641;51.416;5.506;2023-02-20T01:37:25;102672.06;;;10.53;62.04
70248;BME280;57641;51.416;5.506;2023-02-20T01:39:51;102668.34;;;10.43;61.84
70248;BME280;57641;51.416;5.506;2023-02-20T01:42:20;102664.28;;;10.50;61.87
70248;BME280;57641;51.416;5.506;2023-02-20T01:44:47;102669.00;;;10.46;62.08
70248;BME280;57641;51.416;5.506;2023-02-20T01:47:21;102655.53;;;10.48;62.34
70248;BME280;57641;51.416;5.506;2023-02-20T01:49:56;102653.09;;;10.45;61.69
70248;BME280;57641;51.416;5.506;2023-02-20T01:52:28;102651.19;;;10.34;61.39
70248;BME280;57641;51.416;5.506;2023-02-20T01:57:25;102642.31;;;10.21;62.62
70248;BME280;57641;51.416;5.506;2023-02-20T01:59:58;102637.75;;;10.23;62.11
70248;BME280;57641;51.416;5.506;2023-02-20T02:02:27;102631.78;;;10.20;62.64
70248;BME280;57641;51.416;5.506;2023-02-20T02:04:55;102635.03;;;10.10;62.85
70248;BME280;57641;51.416;5.506;2023-02-20T02:07:21;102623.66;;;10.08;63.22
70248;BME280;57641;51.416;5.506;2023-02-20T02:09:53;102616.50;;;9.96;63.64
70248;BME280;57641;51.416;5.506;2023-02-20T02:12:21;102599.88;;;9.80;63.48
70248;BME280;57641;51.416;5.506;2023-02-20T02:14:47;102592.31;;;9.87;64.29
70248;BME280;57641;51.416;5.506;2023-02-20T02:25:52;102564.06;;;9.71;64.78
70248;BME280;57641;51.416;5.506;2023-02-20T02:34:11;102551.47;;;9.48;66.44
70248;BME280;57641;51.416;5.506;2023-02-20T02:36:56;102554.16;;;9.61;65.87
70248;BME280;57641;51.416;5.506;2023-02-20T02:42:27;102580.47;;;9.65;66.17
70248;BME280;57641;51.416;5.506;2023-02-20T02:44:55;102571.84;;;9.62;66.00
70248;BME280;57641;51.416;5.506;2023-02-20T02:52:25;102551.16;;;9.53;66.68
70248;BME280;57641;51.416;5.506;2023-02-20T02:55:11;102551.50;;;9.86;65.65
70248;BME280;57641;51.416;5.506;2023-02-20T02:57:37;102554.69;;;9.66;65.75
70248;BME280;57641;51.416;5.506;2023-02-20T03:00:12;102539.66;;;9.90;65.51
70248;BME280;57641;51.416;5.506;2023-02-20T03:02:46;102542.13;;;9.81;65.72
70248;BME280;57641;51.416;5.506;2023-02-20T03:05:17;102541.81;;;9.72;66.13
70248;BME280;57641;51.416;5.506;2023-02-20T03:07:46;102526.75;;;9.84;66.42
70248;BME280;57641;51.416;5.506;2023-02-20T03:10:17;102527.63;;;9.97;65.59
70248;BME280;57641;51.416;5.506;2023-02-20T03:12:48;102530.50;;;9.82;66.06
70248;BME280;57641;51.416;5.506;2023-02-20T03:15:42;102520.44;;;10.10;65.54
70248;BME280;57641;51.416;5.506;2023-02-20T03:20:50;102535.06;;;10.05;66.26
70248;BME280;57641;51.416;5.506;2023-02-20T03:23:31;102526.44;;;9.89;66.26
70248;BME280;57641;51.416;5.506;2023-02-20T03:26:05;102520.34;;;10.12;65.63
70248;BME280;57641;51.416;5.506;2023-02-20T03:28:55;102521.97;;;10.02;66.56
70248;BME280;57641;51.416;5.506;2023-02-20T03:31:43;102532.19;;;10.08;66.31
70248;BME280;57641;51.416;5.506;2023-02-20T03:34:17;102528.25;;;10.13;65.97
70248;BME280;57641;51.416;5.506;2023-02-20T03:37:07;102523.53;;;10.30;65.88
70248;BME280;57641;51.416;5.506;2023-02-20T03:39:55;102521.41;;;10.22;66.00
70248;BME280;57641;51.416;5.506;2023-02-20T03:42:46;102522.28;;;10.23;65.90
70248;BME280;57641;51.416;5.506;2023-02-20T03:45:34;102537.94;;;10.27;65.71
70248;BME280;57641;51.416;5.506;2023-02-20T03:48:06;102524.16;;;10.33;65.87
70248;BME280;57641;51.416;5.506;2023-02-20T03:50:33;102528.75;;;10.31;66.41
70248;BME280;57641;51.416;5.506;2023-02-20T03:53:17;102524.34;;;10.43;65.96
70248;BME280;57641;51.416;5.506;2023-02-20T03:55:44;102516.75;;;10.26;65.93
70248;BME280;57641;51.416;5.506;2023-02-20T03:58:13;102523.41;;;10.31;66.03
70248;BME280;57641;51.416;5.506;2023-02-20T04:00:43;102509.28;;;10.18;66.44
70248;BME280;57641;51.416;5.506;2023-02-20T04:03:14;102508.41;;;10.30;66.11
70248;BME280;57641;51.416;5.506;2023-02-20T04:05:43;102514.88;;;10.39;66.23
70248;BME280;57641;51.416;5.506;2023-02-20T04:08:15;102505.56;;;10.44;65.89
70248;BME280;57641;51.416;5.506;2023-02-20T04:10:51;102498.81;;;10.28;65.97
70248;BME280;57641;51.416;5.506;2023-02-20T04:13:18;102507.03;;;10.25;66.19
70248;BME280;57641;51.416;5.506;2023-02-20T04:15:45;102508.34;;;10.43;65.20
70248;BME280;57641;51.416;5.506;2023-02-20T04:18:14;102507.13;;;10.23;66.33
70248;BME280;57641;51.416;5.506;2023-02-20T04:20:43;102511.28;;;10.27;66.17
70248;BME280;57641;51.416;5.506;2023-02-20T04:23:14;102512.16;;;10.15;66.31
70248;BME280;57641;51.416;5.506;2023-02-20T04:25:46;102510.53;;;10.00;66.12
70248;BME280;57641;51.416;5.506;2023-02-20T04:28:15;102514.09;;;9.75;67.12
70248;BME280;57641;51.416;5.506;2023-02-20T04:30:42;102514.16;;;10.11;66.35
70248;BME280;57641;51.416;5.506;2023-02-20T04:33:13;102516.53;;;10.16;66.01
70248;BME280;57641;51.416;5.506;2023-02-20T04:35:39;102521.75;;;10.18;65.19
70248;BME280;57641;51.416;5.506;2023-02-20T04:38:06;102520.88;;;10.30;65.60
70248;BME280;57641;51.416;5.506;2023-02-20T04:40:32;102525.69;;;10.25;65.23
70248;BME280;57641;51.416;5.506;2023-02-20T04:42:58;102525.34;;;10.29;65.33
70248;BME280;57641;51.416;5.506;2023-02-20T04:45:23;102510.84;;;10.21;65.99
70248;BME280;57641;51.416;5.506;2023-02-20T04:47:49;102523.00;;;10.12;66.36
70248;BME280;57641;51.416;5.506;2023-02-20T04:50:30;102520.75;;;10.31;65.33
70248;BME280;57641;51.416;5.506;2023-02-20T04:52:56;102521.84;;;10.16;66.33
70248;BME280;57641;51.416;5.506;2023-02-20T04:55:23;102514.72;;;10.16;66.42
70248;BME280;57641;51.416;5.506;2023-02-20T04:57:49;102527.19;;;10.16;66.67
70248;BME280;57641;51.416;5.506;2023-02-20T05:00:17;102526.97;;;10.19;66.48
70248;BME280;57641;51.416;5.506;2023-02-20T05:02:44;102527.44;;;10.37;65.79
70248;BME280;57641;51.416;5.506;2023-02-20T05:05:17;102517.97;;;10.33;65.47
70248;BME280;57641;51.416;5.506;2023-02-20T05:07:43;102524.41;;;10.30;65.46
70248;BME280;57641;51.416;5.506;2023-02-20T05:10:13;102515.75;;;10.27;65.92
70248;BME280;57641;51.416;5.506;2023-02-20T05:12:39;102529.47;;;10.46;65.55
70248;BME280;57641;51.416;5.506;2023-02-20T05:15:05;102536.91;;;10.53;65.38
70248;BME280;57641;51.416;5.506;2023-02-20T05:17:30;102536.00;;;10.66;65.02
70248;BME280;57641;51.416;5.506;2023-02-20T05:19:56;102526.22;;;10.53;65.08
70248;BME280;57641;51.416;5.506;2023-02-20T05:22:21;102525.59;;;10.63;64.73
70248;BME280;57641;51.416;5.506;2023-02-20T05:24:49;102532.56;;;10.76;65.05
70248;BME280;57641;51.416;5.506;2023-02-20T05:27:17;102530.25;;;10.59;64.94
70248;BME280;57641;51.416;5.506;2023-02-20T05:29:51;102526.88;;;10.57;65.42
70248;BME280;57641;51.416;5.506;2023-02-20T05:32:18;102525.03;;;10.34;65.78
70248;BME280;57641;51.416;5.506;2023-02-20T05:34:44;102525.16;;;10.56;64.60
70248;BME280;57641;51.416;5.506;2023-02-20T05:37:11;102526.41;;;10.63;65.51
70248;BME280;57641;51.416;5.506;2023-02-20T05:39:37;102526.97;;;10.79;64.87
70248;BME280;57641;51.416;5.506;2023-02-20T05:42:04;102526.88;;;10.81;64.67
70248;BME280;57641;51.416;5.506;2023-02-20T05:44:30;102529.38;;;10.71;64.79
70248;BME280;57641;51.416;5.506;2023-02-20T05:46:55;102527.47;;;10.84;64.24
70248;BME280;57641;51.416;5.506;2023-02-20T05:49:21;102535.56;;;10.72;64.62
70248;BME280;57641;51.416;5.506;2023-02-20T05:51:47;102537.31;;;10.60;65.18
70248;BME280;57641;51.416;5.506;2023-02-20T05:54:16;102550.38;;;10.39;65.63
70248;BME280;57641;51.416;5.506;2023-02-20T05:56:43;102539.16;;;10.83;64.59
70248;BME280;57641;51.416;5.506;2023-02-20T05:59:09;102533.56;;;10.86;64.14
70248;BME280;57641;51.416;5.506;2023-02-20T06:01:35;102542.47;;;10.50;64.92
70248;BME280;57641;51.416;5.506;2023-02-20T06:04:01;102533.78;;;10.59;65.53
70248;BME280;57641;51.416;5.506;2023-02-20T06:06:38;102538.44;;;10.69;64.87
70248;BME280;57641;51.416;5.506;2023-02-20T06:09:06;102541.25;;;10.67;65.05
70248;BME280;57641;51.416;5.506;2023-02-20T06:11:35;102544.31;;;10.37;65.21
70248;BME280;57641;51.416;5.506;2023-02-20T06:14:02;102543.66;;;10.46;66.03
70248;BME280;57641;51.416;5.506;2023-02-20T06:16:29;102547.34;;;10.56;65.65
70248;BME280;57641;51.416;5.506;2023-02-20T06:18:55;102545.59;;;10.68;64.54
70248;BME280;57641;51.416;5.506;2023-02-20T06:21:21;102538.84;;;10.75;64.11
70248;BME280;57641;51.416;5.506;2023-02-20T06:23:48;102542.31;;;10.88;64.40
70248;BME280;57641;51.416;5.506;2023-02-20T06:26:15;102551.28;;;10.87;64.28
70248;BME280;57641;51.416;5.506;2023-02-20T06:28:41;102528.38;;;10.96;64.02
70248;BME280;57641;51.416;5.506;2023-02-20T06:31:07;102529.03;;;10.99;63.26
70248;BME280;57641;51.416;5.506;2023-02-20T06:33:33;102536.34;;;11.09;63.46
70248;BME280;57641;51.416;5.506;2023-02-20T06:35:59;102533.88;;;11.06;63.09
70248;BME280;57641;51.416;5.506;2023-02-20T06:38:25;102533.78;;;11.07;63.35
70248;BME280;57641;51.416;5.506;2023-02-20T06:40:51;102529.84;;;11.00;62.81
70248;BME280;57641;51.416;5.506;2023-02-20T06:43:17;102536.25;;;10.86;63.41
70248;BME280;57641;51.416;5.506;2023-02-20T06:45:43;102526.63;;;10.60;64.33
70248;BME280;57641;51.416;5.506;2023-02-20T06:48:09;102530.03;;;10.86;63.39
70248;BME280;57641;51.416;5.506;2023-02-20T06:50:35;102537.16;;;10.98;63.18
70248;BME280;57641;51.416;5.506;2023-02-20T06:53:01;102527.31;;;10.98;63.24
70248;BME280;57641;51.416;5.506;2023-02-20T06:55:26;102526.59;;;10.73;63.18
70248;BME280;57641;51.416;5.506;2023-02-20T06:57:52;102537.47;;;10.70;63.89
70248;BME280;57641;51.416;5.506;2023-02-20T07:00:18;102543.13;;;10.78;63.39
70248;BME280;57641;51.416;5.506;2023-02-20T07:02:44;102536.44;;;11.07;63.00
70248;BME280;57641;51.416;5.506;2023-02-20T07:05:11;102545.94;;;10.87;63.25
70248;BME280;57641;51.416;5.506;2023-02-20T07:07:37;102544.91;;;11.01;62.33
70248;BME280;57641;51.416;5.506;2023-02-20T07:10:04;102545.50;;;10.93;62.82
70248;BME280;57641;51.416;5.506;2023-02-20T07:12:33;102540.03;;;11.19;62.20
70248;BME280;57641;51.416;5.506;2023-02-20T07:15:07;102536.69;;;11.04;62.19
70248;BME280;57641;51.416;5.506;2023-02-20T07:17:33;102556.34;;;11.03;62.89
70248;BME280;57641;51.416;5.506;2023-02-20T07:19:58;102556.22;;;11.05;62.71
70248;BME280;57641;51.416;5.506;2023-02-20T07:22:24;102550.59;;;11.20;62.24
70248;BME280;57641;51.416;5.506;2023-02-20T07:24:51;102553.31;;;11.08;61.59
70248;BME280;57641;51.416;5.506;2023-02-20T07:27:16;102557.59;;;11.10;62.38
70248;BME280;57641;51.416;5.506;2023-02-20T07:29:46;102549.63;;;10.97;62.58
70248;BME280;57641;51.416;5.506;2023-02-20T07:32:13;102559.56;;;11.19;61.67
70248;BME280;57641;51.416;5.506;2023-02-20T07:34:39;102548.72;;;11.10;61.51
70248;BME280;57641;51.416;5.506;2023-02-20T07:37:04;102546.47;;;10.92;61.77
70248;BME280;57641;51.416;5.506;2023-02-20T07:39:30;102542.19;;;11.14;61.88
70248;BME280;57641;51.416;5.506;2023-02-20T07:41:55;102552.19;;;11.34;61.76
70248;BME280;57641;51.416;5.506;2023-02-20T07:44:21;102546.41;;;11.16;61.38
70248;BME280;57641;51.416;5.506;2023-02-20T07:46:46;102539.56;;;11.25;61.81
70248;BME280;57641;51.416;5.506;2023-02-20T07:49:12;102542.69;;;10.95;62.19
70248;BME280;57641;51.416;5.506;2023-02-20T07:51:37;102538.50;;;11.04;62.34
70248;BME280;57641;51.416;5.506;2023-02-20T07:54:03;102542.84;;;10.93;62.23
70248;BME280;57641;51.416;5.506;2023-02-20T07:56:29;102545.75;;;11.25;61.50
70248;BME280;57641;51.416;5.506;2023-02-20T07:58:55;102543.25;;;11.11;62.08
70248;BME280;57641;51.416;5.506;2023-02-20T08:01:20;102543.44;;;11.21;62.13
70248;BME280;57641;51.416;5.506;2023-02-20T08:03:46;102549.00;;;11.18;62.27
70248;BME280;57641;51.416;5.506;2023-02-20T08:06:12;102541.84;;;10.94;62.82
70248;BME280;57641;51.416;5.506;2023-02-20T08:08:40;102538.06;;;11.10;61.84
70248;BME280;57641;51.416;5.506;2023-02-20T08:11:06;102537.06;;;11.11;62.45
70248;BME280;57641;51.416;5.506;2023-02-20T08:13:31;102542.09;;;11.26;61.83
70248;BME280;57641;51.416;5.506;2023-02-20T08:15:57;102540.53;;;11.24;61.61
70248;BME280;57641;51.416;5.506;2023-02-20T08:18:23;102544.22;;;11.45;61.79
70248;BME280;57641;51.416;5.506;2023-02-20T08:20:48;102541.84;;;10.94;63.18
70248;BME280;57641;51.416;5.506;2023-02-20T08:23:22;102546.00;;;11.33;62.00
70248;BME280;57641;51.416;5.506;2023-02-20T08:25:49;102549.94;;;11.17;61.97
70248;BME280;57641;51.416;5.506;2023-02-20T08:28:15;102539.41;;;11.26;62.31
70248;BME280;57641;51.416;5.506;2023-02-20T08:30:41;102542.13;;;11.37;61.70
70248;BME280;57641;51.416;5.506;2023-02-20T08:33:06;102550.84;;;11.28;62.14
70248;BME280;57641;51.416;5.506;2023-02-20T08:35:32;102532.00;;;11.19;62.74
70248;BME280;57641;51.416;5.506;2023-02-20T08:38:02;102542.22;;;11.25;62.36
70248;BME280;57641;51.416;5.506;2023-02-20T08:40:28;102532.25;;;11.27;62.38
70248;BME280;57641;51.416;5.506;2023-02-20T08:42:54;102529.34;;;11.19;62.54
70248;BME280;57641;51.416;5.506;2023-02-20T08:45:19;102527.06;;;11.25;62.72
70248;BME280;57641;51.416;5.506;2023-02-20T08:47:45;102524.06;;;11.41;62.02
70248;BME280;57641;51.416;5.506;2023-02-20T08:50:13;102530.47;;;11.38;62.13
70248;BME280;57641;51.416;5.506;2023-02-20T08:52:41;102539.53;;;11.14;62.54
70248;BME280;57641;51.416;5.506;2023-02-20T08:55:07;102536.31;;;11.43;61.77
70248;BME280;57641;51.416;5.506;2023-02-20T08:57:33;102530.00;;;11.44;61.62
70248;BME280;57641;51.416;5.506;2023-02-20T08:59:58;102528.91;;;11.36;62.74
70248;BME280;57641;51.416;5.506;2023-02-20T09:02:24;102529.22;;;11.66;62.21
70248;BME280;57641;51.416;5.506;2023-02-20T09:04:53;102529.31;;;11.65;60.84
70248;BME280;57641;51.416;5.506;2023-02-20T09:07:19;102541.47;;;11.58;61.67
70248;BME280;57641;51.416;5.506;2023-02-20T09:09:44;102545.81;;;11.59;61.85
70248;BME280;57641;51.416;5.506;2023-02-20T09:12:10;102542.56;;;11.66;62.33
70248;BME280;57641;51.416;5.506;2023-02-20T09:14:36;102529.78;;;11.59;61.98
70248;BME280;57641;51.416;5.506;2023-02-20T09:17:02;102543.66;;;11.64;61.47
70248;BME280;57641;51.416;5.506;2023-02-20T09:19:28;102532.69;;;11.44;62.54
70248;BME280;57641;51.416;5.506;2023-02-20T09:21:53;102536.53;;;11.75;62.24
70248;BME280;57641;51.416;5.506;2023-02-20T09:24:19;102548.38;;;11.60;61.27
70248;BME280;57641;51.416;5.506;2023-02-20T09:26:44;102536.09;;;11.47;62.34
70248;BME280;57641;51.416;5.506;2023-02-20T09:29:10;102532.38;;;11.71;62.10
70248;BME280;57641;51.416;5.506;2023-02-20T09:31:35;102533.66;;;11.78;62.38
70248;BME280;57641;51.416;5.506;2023-02-20T09:34:00;102536.13;;;11.58;63.03
70248;BME280;57641;51.416;5.506;2023-02-20T09:36:28;102525.78;;;11.53;62.70
70248;BME280;57641;51.416;5.506;2023-02-20T09:38:54;102530.34;;;11.75;62.36
70248;BME280;57641;51.416;5.506;2023-02-20T09:41:45;102525.25;;;11.83;61.81
70248;BME280;57641;51.416;5.506;2023-02-20T09:50:00;102523.94;;;11.42;63.11
70248;BME280;57641;51.416;5.506;2023-02-20T09:52:28;102523.75;;;11.68;62.49
70248;BME280;57641;51.416;5.506;2023-02-20T09:55:02;102527.00;;;11.60;62.64
70248;BME280;57641;51.416;5.506;2023-02-20T09:57:29;102527.03;;;11.71;62.70
70248;BME280;57641;51.416;5.506;2023-02-20T10:02:54;102529.97;;;11.68;62.55
70248;BME280;57641;51.416;5.506;2023-02-20T10:05:27;102512.50;;;11.87;61.72
70248;BME280;57641;51.416;5.506;2023-02-20T10:07:54;102510.91;;;11.95;61.80
70248;BME280;57641;51.416;5.506;2023-02-20T10:10:29;102504.72;;;12.06;61.44
70248;BME280;57641;51.416;5.506;2023-02-20T10:16:18;102491.84;;;11.89;62.28
70248;BME280;57641;51.416;5.506;2023-02-20T10:19:09;102502.88;;;11.95;62.50
70248;BME280;57641;51.416;5.506;2023-02-20T10:24:25;102507.53;;;11.93;62.08
70248;BME280;57641;51.416;5.506;2023-02-20T10:27:18;102515.66;;;11.80;62.33
70248;BME280;57641;51.416;5.506;2023-02-20T10:29:46;102518.31;;;11.80;63.10
70248;BME280;57641;51.416;5.506;2023-02-20T10:32:22;102523.19;;;11.87;62.68
70248;BME280;57641;51.416;5.506;2023-02-20T10:35:00;102527.31;;;11.91;62.97
70248;BME280;57641;51.416;5.506;2023-02-20T10:37:33;102527.47;;;11.89;62.61
70248;BME280;57641;51.416;5.506;2023-02-20T10:43:04;102519.06;;;11.82;62.96
70248;BME280;57641;51.416;5.506;2023-02-20T10:45:51;102520.03;;;11.81;63.26
70248;BME280;57641;51.416;5.506;2023-02-20T10:48:18;102522.81;;;12.02;62.97
70248;BME280;57641;51.416;5.506;2023-02-20T10:51:09;102529.28;;;12.00;62.80
70248;BME280;57641;51.416;5.506;2023-02-20T10:53:39;102531.69;;;12.25;62.54
70248;BME280;57641;51.416;5.506;2023-02-20T11:01:33;102525.59;;;12.12;62.74
70248;BME280;57641;51.416;5.506;2023-02-20T11:04:16;102533.88;;;12.31;62.68
70248;BME280;57641;51.416;5.506;2023-02-20T11:06:49;102530.72;;;12.04;63.22
70248;BME280;57641;51.416;5.506;2023-02-20T11:09:18;102509.94;;;12.07;63.23
70248;BME280;57641;51.416;5.506;2023-02-20T11:11:45;102522.59;;;12.05;63.27
70248;BME280;57641;51.416;5.506;2023-02-20T11:14:24;102517.97;;;12.18;62.61
70248;BME280;57641;51.416;5.506;2023-02-20T11:16:55;102520.50;;;12.20;62.83
70248;BME280;57641;51.416;5.506;2023-02-20T11:19:27;102520.53;;;12.09;62.43
70248;BME280;57641;51.416;5.506;2023-02-20T11:21:54;102512.88;;;12.15;63.68
70248;BME280;57641;51.416;5.506;2023-02-20T11:24:40;102516.72;;;12.34;62.86
70248;BME280;57641;51.416;5.506;2023-02-20T11:27:15;102528.53;;;12.09;62.76
70248;BME280;57641;51.416;5.506;2023-02-20T11:29:47;102519.41;;;12.11;63.02
70248;BME280;57641;51.416;5.506;2023-02-20T11:32:34;102514.91;;;12.12;63.38
70248;BME280;57641;51.416;5.506;2023-02-20T11:37:29;102486.03;;;11.83;64.68
70248;BME280;57641;51.416;5.506;2023-02-20T11:39:58;102497.69;;;11.94;64.40
70248;BME280;57641;51.416;5.506;2023-02-20T11:42:31;102492.81;;;11.99;64.59
70248;BME280;57641;51.416;5.506;2023-02-20T11:45:13;102492.81;;;12.10;64.24
70248;BME280;57641;51.416;5.506;2023-02-20T11:47:40;102495.50;;;12.10;63.90
70248;BME280;57641;51.416;5.506;2023-02-20T11:50:18;102491.59;;;12.03;63.77
70248;BME280;57641;51.416;5.506;2023-02-20T11:53:00;102502.38;;;12.23;64.11
70248;BME280;57641;51.416;5.506;2023-02-20T11:55:27;102510.53;;;12.22;63.29
70248;BME280;57641;51.416;5.506;2023-02-20T11:57:54;102506.03;;;12.34;63.23
70248;BME280;57641;51.416;5.506;2023-02-20T12:00:21;102487.94;;;12.26;63.48
70248;BME280;57641;51.416;5.506;2023-02-20T12:03:40;102475.38;;;12.38;63.67
70248;BME280;57641;51.416;5.506;2023-02-20T12:05:46;102469.72;;;12.20;64.06
70248;BME280;57641;51.416;5.506;2023-02-20T12:08:30;102473.00;;;12.01;64.64
70248;BME280;57641;51.416;5.506;2023-02-20T12:11:10;102465.31;;;12.30;64.29
70248;BME280;57641;51.416;5.506;2023-02-20T12:13:41;102464.56;;;12.39;63.67
70248;BME280;57641;51.416;5.506;2023-02-20T12:19:02;102445.19;;;12.04;64.19
70248;BME280;57641;51.416;5.506;2023-02-20T12:27:34;102438.50;;;11.98;64.91
70248;BME280;57641;51.416;5.506;2023-02-20T12:33:07;102444.00;;;12.40;63.75
70248;BME280;57641;51.416;5.506;2023-02-20T12:38:56;102433.59;;;12.25;64.68
70248;BME280;57641;51.416;5.506;2023-02-20T12:47:04;102444.28;;;12.25;64.35
70248;BME280;57641;51.416;5.506;2023-02-20T12:49:51;102440.75;;;12.36;64.13
70248;BME280;57641;51.416;5.506;2023-02-20T12:52:35;102436.25;;;12.37;63.97
70248;BME280;57641;51.416;5.506;2023-02-20T13:00:35;102413.97;;;12.47;64.11
70248;BME280;57641;51.416;5.506;2023-02-20T13:03:10;102409.94;;;12.53;63.17
70248;BME280;57641;51.416;5.506;2023-02-20T13:05:39;102403.56;;;12.54;63.52
70248;BME280;57641;51.416;5.506;2023-02-20T13:11:05;102384.72;;;12.55;63.36
70248;BME280;57641;51.416;5.506;2023-02-20T13:13:41;102370.97;;;12.28;63.87
70248;BME280;57641;51.416;5.506;2023-02-20T13:16:18;102365.47;;;12.09;64.95
70248;BME280;57641;51.416;5.506;2023-02-20T13:19:21;102361.78;;;12.53;63.34
70248;BME280;57641;51.416;5.506;2023-02-20T13:21:42;102358.03;;;12.65;63.79
70248;BME280;57641;51.416;5.506;2023-02-20T13:24:28;102360.38;;;12.58;63.63
70248;BME280;57641;51.416;5.506;2023-02-20T13:27:30;102347.34;;;12.65;63.53
70248;BME280;57641;51.416;5.506;2023-02-20T13:29:59;102348.19;;;12.65;63.29
70248;BME280;57641;51.416;5.506;2023-02-20T13:32:27;102334.41;;;12.70;63.35
70248;BME280;57641;51.416;5.506;2023-02-20T13:38:13;102337.31;;;12.57;63.17
70248;BME280;57641;51.416;5.506;2023-02-20T13:56:52;102346.19;;;12.79;62.81
70248;BME280;57641;51.416;5.506;2023-02-20T13:59:21;102348.84;;;12.37;63.88
70248;BME280;57641;51.416;5.506;2023-02-20T14:04:57;102334.06;;;12.43;63.76
70248;BME280;57641;51.416;5.506;2023-02-20T14:07:32;102330.81;;;12.60;63.55
70248;BME280;57641;51.416;5.506;2023-02-20T14:10:30;102336.63;;;12.65;62.35
70248;BME280;57641;51.416;5.506;2023-02-20T14:13:09;102346.56;;;12.74;62.28
70248;BME280;57641;51.416;5.506;2023-02-20T14:15:49;102343.63;;;12.77;62.37
70248;BME280;57641;51.416;5.506;2023-02-20T14:18:28;102353.47;;;12.77;62.30
70248;BME280;57641;51.416;5.506;2023-02-20T14:20:58;102346.94;;;12.69;62.76
70248;BME280;57641;51.416;5.506;2023-02-20T14:23:29;102333.81;;;12.87;62.37
70248;BME280;57641;51.416;5.506;2023-02-20T14:26:04;102327.03;;;12.83;62.04
70248;BME280;57641;51.416;5.506;2023-02-20T14:28:34;102332.00;;;12.67;62.13
70248;BME280;57641;51.416;5.506;2023-02-20T14:33:30;102316.03;;;12.56;62.30
70248;BME280;57641;51.416;5.506;2023-02-20T14:41:17;102323.94;;;12.57;62.99
70248;BME280;57641;51.416;5.506;2023-02-20T14:43:43;102311.91;;;12.52;62.31
70248;BME280;57641;51.416;5.506;2023-02-20T14:46:33;102309.63;;;12.68;62.76
70248;BME280;57641;51.416;5.506;2023-02-20T14:49:12;102314.63;;;12.82;62.04
70248;BME280;57641;51.416;5.506;2023-02-20T14:51:39;102314.63;;;12.82;62.25
70248;BME280;57641;51.416;5.506;2023-02-20T14:54:24;102314.47;;;13.04;61.53
70248;BME280;57641;51.416;5.506;2023-02-20T14:56:54;102311.84;;;12.84;61.46
70248;BME280;57641;51.416;5.506;2023-02-20T14:59:39;102300.00;;;12.86;61.48